sensor_id;sensor_type;location;lat;lon;timestamp;P1;durP1;ratioP1;P2;durP2;ratioP2
11829;SDS011;5972;42.134;24.718;2023-06-10T00:01:21;5.15;;;3.92;;
11829;SDS011;5972;42.134;24.718;2023-06-10T00:03:49;4.90;;;4.40;;
11829;SDS011;5972;42.134;24.718;2023-06-10T00:06:16;6.05;;;4.20;;
11829;SDS011;5972;42.134;24.718;2023-06-10T00:08:45;4.47;;;4.07;;
11829;SDS011;5972;42.134;24.718;2023-06-10T00:11:12;8.00;;;4.30;;
11829;SDS011;5972;42.134;24.718;2023-06-10T00:13:39;4.65;;;4.20;;
11829;SDS011;5972;42.134;24.718;2023-06-10T00:16:06;8.27;;;4.55;;
11829;SDS011;5972;42.134;24.718;2023-06-10T00:18:33;4.35;;;3.95;;
11829;SDS011;5972;42.134;24.718;2023-06-10T00:21:02;5.55;;;4.03;;
11829;SDS011;5972;42.134;24.718;2023-06-10T00:23:30;5.35;;;4.50;;
11829;SDS011;5972;42.134;24.718;2023-06-10T00:26:04;4.68;;;4.00;;
11829;SDS011;5972;42.134;24.718;2023-06-10T00:28:31;7.50;;;4.43;;
11829;SDS011;5972;42.134;24.718;2023-06-10T00:30:58;6.90;;;4.00;;
11829;SDS011;5972;42.134;24.718;2023-06-10T00:33:25;8.50;;;4.20;;
11829;SDS011;5972;42.134;24.718;2023-06-10T00:35:52;4.68;;;4.10;;
11829;SDS011;5972;42.134;24.718;2023-06-10T00:38:18;6.80;;;4.20;;
11829;SDS011;5972;42.134;24.718;2023-06-10T00:40:45;4.30;;;3.95;;
11829;SDS011;5972;42.134;24.718;2023-06-10T00:43:13;6.07;;;4.43;;
11829;SDS011;5972;42.134;24.718;2023-06-10T00:45:40;4.88;;;4.38;;
11829;SDS011;5972;42.134;24.718;2023-06-10T00:48:07;6.72;;;4.75;;
11829;SDS011;5972;42.134;24.718;2023-06-10T00:50:34;6.25;;;4.35;;
11829;SDS011;5972;42.134;24.718;2023-06-10T00:53:04;5.47;;;4.30;;
11829;SDS011;5972;42.134;24.718;2023-06-10T00:55:31;7.82;;;4.40;;
11829;SDS011;5972;42.134;24.718;2023-06-10T00:57:58;4.32;;;3.92;;
11829;SDS011;5972;42.134;24.718;2023-06-10T01:00:27;6.88;;;4.30;;
11829;SDS011;5972;42.134;24.718;2023-06-10T01:02:54;5.13;;;4.00;;
11829;SDS011;5972;42.134;24.718;2023-06-10T01:05:21;7.20;;;4.78;;
11829;SDS011;5972;42.134;24.718;2023-06-10T01:07:50;4.45;;;4.00;;
11829;SDS011;5972;42.134;24.718;2023-06-10T01:10:24;4.88;;;4.13;;
11829;SDS011;5972;42.134;24.718;2023-06-10T01:12:58;4.88;;;4.45;;
11829;SDS011;5972;42.134;24.718;2023-06-10T01:15:29;4.53;;;3.95;;
11829;SDS011;5972;42.134;24.718;2023-06-10T01:17:56;7.20;;;4.30;;
11829;SDS011;5972;42.134;24.718;2023-06-10T01:20:25;4.43;;;4.03;;
11829;SDS011;5972;42.134;24.718;2023-06-10T01:22:55;6.47;;;4.20;;
11829;SDS011;5972;42.134;24.718;2023-06-10T01:25:23;4.78;;;4.35;;
11829;SDS011;5972;42.134;24.718;2023-06-10T01:27:54;6.50;;;3.85;;
11829;SDS011;5972;42.134;24.718;2023-06-10T01:30:29;10.68;;;4.32;;
11829;SDS011;5972;42.134;24.718;2023-06-10T01:33:02;4.97;;;4.40;;
11829;SDS011;5972;42.134;24.718;2023-06-10T01:35:33;6.60;;;4.63;;
11829;SDS011;5972;42.134;24.718;2023-06-10T01:38:04;7.82;;;4.03;;
11829;SDS011;5972;42.134;24.718;2023-06-10T01:40:32;8.90;;;3.90;;
11829;SDS011;5972;42.134;24.718;2023-06-10T01:43:00;4.75;;;4.30;;
11829;SDS011;5972;42.134;24.718;2023-06-10T01:45:27;6.63;;;4.15;;
11829;SDS011;5972;42.134;24.718;2023-06-10T01:47:53;6.40;;;4.40;;
11829;SDS011;5972;42.134;24.718;2023-06-10T01:50:20;6.32;;;4.22;;
11829;SDS011;5972;42.134;24.718;2023-06-10T01:52:47;7.03;;;4.38;;
11829;SDS011;5972;42.134;24.718;2023-06-10T01:55:15;5.45;;;3.97;;
11829;SDS011;5972;42.134;24.718;2023-06-10T01:57:42;7.32;;;4.60;;
11829;SDS011;5972;42.134;24.718;2023-06-10T02:00:09;7.55;;;4.32;;
11829;SDS011;5972;42.134;24.718;2023-06-10T02:02:37;8.90;;;4.28;;
11829;SDS011;5972;42.134;24.718;2023-06-10T02:05:04;8.50;;;4.50;;
11829;SDS011;5972;42.134;24.718;2023-06-10T02:07:31;6.78;;;4.03;;
11829;SDS011;5972;42.134;24.718;2023-06-10T02:09:57;6.80;;;4.28;;
11829;SDS011;5972;42.134;24.718;2023-06-10T02:12:26;6.78;;;4.20;;
11829;SDS011;5972;42.134;24.718;2023-06-10T02:14:52;5.60;;;4.38;;
11829;SDS011;5972;42.134;24.718;2023-06-10T02:17:19;6.57;;;5.32;;
11829;SDS011;5972;42.134;24.718;2023-06-10T02:19:46;7.65;;;5.22;;
11829;SDS011;5972;42.134;24.718;2023-06-10T02:22:19;9.18;;;5.20;;
11829;SDS011;5972;42.134;24.718;2023-06-10T02:24:46;6.22;;;4.97;;
11829;SDS011;5972;42.134;24.718;2023-06-10T02:27:13;7.55;;;5.00;;
11829;SDS011;5972;42.134;24.718;2023-06-10T02:29:42;9.55;;;5.20;;
11829;SDS011;5972;42.134;24.718;2023-06-10T02:32:09;7.28;;;5.38;;
11829;SDS011;5972;42.134;24.718;2023-06-10T02:34:36;8.38;;;4.57;;
11829;SDS011;5972;42.134;24.718;2023-06-10T02:37:03;9.30;;;5.00;;
11829;SDS011;5972;42.134;24.718;2023-06-10T02:39:30;5.00;;;4.50;;
11829;SDS011;5972;42.134;24.718;2023-06-10T02:41:57;9.10;;;4.93;;
11829;SDS011;5972;42.134;24.718;2023-06-10T02:44:23;5.43;;;4.93;;
11829;SDS011;5972;42.134;24.718;2023-06-10T02:46:52;9.35;;;4.97;;
11829;SDS011;5972;42.134;24.718;2023-06-10T02:49:18;9.50;;;4.95;;
11829;SDS011;5972;42.134;24.718;2023-06-10T02:51:45;7.25;;;4.47;;
11829;SDS011;5972;42.134;24.718;2023-06-10T02:54:12;8.43;;;4.80;;
11829;SDS011;5972;42.134;24.718;2023-06-10T02:56:39;4.90;;;4.40;;
11829;SDS011;5972;42.134;24.718;2023-06-10T02:59:06;5.43;;;4.60;;
11829;SDS011;5972;42.134;24.718;2023-06-10T03:01:33;5.72;;;4.40;;
11829;SDS011;5972;42.134;24.718;2023-06-10T03:04:03;5.20;;;4.65;;
11829;SDS011;5972;42.134;24.718;2023-06-10T03:06:30;6.78;;;4.43;;
11829;SDS011;5972;42.134;24.718;2023-06-10T03:08:59;6.47;;;4.47;;
11829;SDS011;5972;42.134;24.718;2023-06-10T03:11:26;7.00;;;4.38;;
11829;SDS011;5972;42.134;24.718;2023-06-10T03:13:53;5.40;;;4.15;;
11829;SDS011;5972;42.134;24.718;2023-06-10T03:16:20;6.15;;;4.25;;
11829;SDS011;5972;42.134;24.718;2023-06-10T03:18:47;7.25;;;4.30;;
11829;SDS011;5972;42.134;24.718;2023-06-10T03:21:16;4.07;;;3.70;;
11829;SDS011;5972;42.134;24.718;2023-06-10T03:23:43;4.72;;;4.03;;
11829;SDS011;5972;42.134;24.718;2023-06-10T03:26:10;4.55;;;4.15;;
11829;SDS011;5972;42.134;24.718;2023-06-10T03:28:38;4.10;;;3.78;;
11829;SDS011;5972;42.134;24.718;2023-06-10T03:31:05;6.70;;;4.55;;
11829;SDS011;5972;42.134;24.718;2023-06-10T03:33:32;6.95;;;4.38;;
11829;SDS011;5972;42.134;24.718;2023-06-10T03:35:59;7.68;;;4.45;;
11829;SDS011;5972;42.134;24.718;2023-06-10T03:38:27;7.93;;;4.60;;
11829;SDS011;5972;42.134;24.718;2023-06-10T03:40:53;9.07;;;4.60;;
11829;SDS011;5972;42.134;24.718;2023-06-10T03:43:20;4.80;;;4.30;;
11829;SDS011;5972;42.134;24.718;2023-06-10T03:45:47;9.93;;;4.40;;
11829;SDS011;5972;42.134;24.718;2023-06-10T03:48:14;5.55;;;4.65;;
11829;SDS011;5972;42.134;24.718;2023-06-10T03:50:41;10.27;;;4.55;;
11829;SDS011;5972;42.134;24.718;2023-06-10T03:53:08;5.40;;;4.53;;
11829;SDS011;5972;42.134;24.718;2023-06-10T03:55:36;9.63;;;4.25;;
11829;SDS011;5972;42.134;24.718;2023-06-10T03:58:03;13.07;;;4.78;;
11829;SDS011;5972;42.134;24.718;2023-06-10T04:00:30;9.90;;;4.82;;
11829;SDS011;5972;42.134;24.718;2023-06-10T04:03:06;5.75;;;4.20;;
11829;SDS011;5972;42.134;24.718;2023-06-10T04:05:34;12.90;;;5.35;;
11829;SDS011;5972;42.134;24.718;2023-06-10T04:08:01;10.65;;;4.82;;
11829;SDS011;5972;42.134;24.718;2023-06-10T04:10:28;6.45;;;5.07;;
11829;SDS011;5972;42.134;24.718;2023-06-10T04:12:56;11.07;;;4.97;;
11829;SDS011;5972;42.134;24.718;2023-06-10T04:15:23;10.40;;;5.03;;
11829;SDS011;5972;42.134;24.718;2023-06-10T04:17:49;9.05;;;4.97;;
11829;SDS011;5972;42.134;24.718;2023-06-10T04:20:16;6.13;;;5.20;;
11829;SDS011;5972;42.134;24.718;2023-06-10T04:22:43;8.27;;;4.95;;
11829;SDS011;5972;42.134;24.718;2023-06-10T04:25:10;8.23;;;5.03;;
11829;SDS011;5972;42.134;24.718;2023-06-10T04:27:37;7.78;;;5.30;;
11829;SDS011;5972;42.134;24.718;2023-06-10T04:30:06;11.15;;;5.72;;
11829;SDS011;5972;42.134;24.718;2023-06-10T04:32:34;6.40;;;5.18;;
11829;SDS011;5972;42.134;24.718;2023-06-10T04:35:00;6.30;;;5.07;;
11829;SDS011;5972;42.134;24.718;2023-06-10T04:37:27;13.52;;;5.22;;
11829;SDS011;5972;42.134;24.718;2023-06-10T04:39:54;8.50;;;5.32;;
11829;SDS011;5972;42.134;24.718;2023-06-10T04:42:22;12.23;;;6.15;;
11829;SDS011;5972;42.134;24.718;2023-06-10T04:44:49;7.63;;;5.10;;
11829;SDS011;5972;42.134;24.718;2023-06-10T04:47:17;9.70;;;4.70;;
11829;SDS011;5972;42.134;24.718;2023-06-10T04:49:44;12.90;;;5.60;;
11829;SDS011;5972;42.134;24.718;2023-06-10T04:52:10;12.68;;;5.43;;
11829;SDS011;5972;42.134;24.718;2023-06-10T04:54:39;10.77;;;5.57;;
11829;SDS011;5972;42.134;24.718;2023-06-10T04:57:06;11.40;;;5.40;;
11829;SDS011;5972;42.134;24.718;2023-06-10T04:59:33;5.85;;;5.25;;
11829;SDS011;5972;42.134;24.718;2023-06-10T05:02:02;16.25;;;5.47;;
11829;SDS011;5972;42.134;24.718;2023-06-10T05:04:31;10.43;;;6.10;;
11829;SDS011;5972;42.134;24.718;2023-06-10T05:06:57;10.55;;;5.63;;
11829;SDS011;5972;42.134;24.718;2023-06-10T05:09:24;9.25;;;5.32;;
11829;SDS011;5972;42.134;24.718;2023-06-10T05:11:52;11.60;;;5.25;;
11829;SDS011;5972;42.134;24.718;2023-06-10T05:14:19;16.17;;;5.90;;
11829;SDS011;5972;42.134;24.718;2023-06-10T05:16:46;6.85;;;5.47;;
11829;SDS011;5972;42.134;24.718;2023-06-10T05:19:13;9.32;;;5.07;;
11829;SDS011;5972;42.134;24.718;2023-06-10T05:21:43;6.75;;;4.55;;
11829;SDS011;5972;42.134;24.718;2023-06-10T05:24:10;8.93;;;4.75;;
11829;SDS011;5972;42.134;24.718;2023-06-10T05:26:37;8.85;;;4.72;;
11829;SDS011;5972;42.134;24.718;2023-06-10T05:29:07;8.20;;;4.68;;
11829;SDS011;5972;42.134;24.718;2023-06-10T05:31:35;7.32;;;5.18;;
11829;SDS011;5972;42.134;24.718;2023-06-10T05:34:01;6.18;;;5.22;;
11829;SDS011;5972;42.134;24.718;2023-06-10T05:36:28;6.53;;;5.15;;
11829;SDS011;5972;42.134;24.718;2023-06-10T05:38:56;7.20;;;5.53;;
11829;SDS011;5972;42.134;24.718;2023-06-10T05:41:23;9.98;;;6.15;;
11829;SDS011;5972;42.134;24.718;2023-06-10T05:43:50;9.85;;;5.50;;
11829;SDS011;5972;42.134;24.718;2023-06-10T05:46:17;9.02;;;5.15;;
11829;SDS011;5972;42.134;24.718;2023-06-10T05:48:44;9.20;;;5.20;;
11829;SDS011;5972;42.134;24.718;2023-06-10T05:51:11;7.55;;;5.65;;
11829;SDS011;5972;42.134;24.718;2023-06-10T05:53:38;11.40;;;5.88;;
11829;SDS011;5972;42.134;24.718;2023-06-10T05:56:06;13.63;;;6.53;;
11829;SDS011;5972;42.134;24.718;2023-06-10T05:58:33;12.35;;;5.95;;
11829;SDS011;5972;42.134;24.718;2023-06-10T06:01:00;10.23;;;5.15;;
11829;SDS011;5972;42.134;24.718;2023-06-10T06:03:26;6.30;;;4.78;;
11829;SDS011;5972;42.134;24.718;2023-06-10T06:05:53;8.68;;;4.60;;
11829;SDS011;5972;42.134;24.718;2023-06-10T06:08:20;7.72;;;5.00;;
11829;SDS011;5972;42.134;24.718;2023-06-10T06:10:47;6.60;;;4.78;;
11829;SDS011;5972;42.134;24.718;2023-06-10T06:13:15;6.38;;;5.15;;
11829;SDS011;5972;42.134;24.718;2023-06-10T06:15:42;6.65;;;4.72;;
11829;SDS011;5972;42.134;24.718;2023-06-10T06:18:09;8.25;;;5.07;;
11829;SDS011;5972;42.134;24.718;2023-06-10T06:20:35;10.75;;;4.82;;
11829;SDS011;5972;42.134;24.718;2023-06-10T06:23:02;6.45;;;4.97;;
11829;SDS011;5972;42.134;24.718;2023-06-10T06:25:29;9.23;;;4.88;;
11829;SDS011;5972;42.134;24.718;2023-06-10T06:27:55;5.55;;;4.85;;
11829;SDS011;5972;42.134;24.718;2023-06-10T06:30:24;7.50;;;4.80;;
11829;SDS011;5972;42.134;24.718;2023-06-10T06:32:50;6.65;;;5.22;;
11829;SDS011;5972;42.134;24.718;2023-06-10T06:35:17;7.68;;;4.80;;
11829;SDS011;5972;42.134;24.718;2023-06-10T06:37:44;8.18;;;5.30;;
11829;SDS011;5972;42.134;24.718;2023-06-10T06:40:11;10.73;;;5.40;;
11829;SDS011;5972;42.134;24.718;2023-06-10T06:42:39;7.03;;;4.93;;
11829;SDS011;5972;42.134;24.718;2023-06-10T06:45:06;9.73;;;4.95;;
11829;SDS011;5972;42.134;24.718;2023-06-10T06:47:34;6.50;;;5.28;;
11829;SDS011;5972;42.134;24.718;2023-06-10T06:50:01;9.40;;;4.90;;
11829;SDS011;5972;42.134;24.718;2023-06-10T06:52:28;7.60;;;5.22;;
11829;SDS011;5972;42.134;24.718;2023-06-10T06:54:55;7.53;;;5.50;;
11829;SDS011;5972;42.134;24.718;2023-06-10T06:57:22;5.88;;;4.70;;
11829;SDS011;5972;42.134;24.718;2023-06-10T06:59:49;8.77;;;4.90;;
11829;SDS011;5972;42.134;24.718;2023-06-10T07:02:16;11.48;;;5.50;;
11829;SDS011;5972;42.134;24.718;2023-06-10T07:04:45;8.73;;;4.70;;
11829;SDS011;5972;42.134;24.718;2023-06-10T07:07:13;8.48;;;4.90;;
11829;SDS011;5972;42.134;24.718;2023-06-10T07:09:40;14.52;;;5.25;;
11829;SDS011;5972;42.134;24.718;2023-06-10T07:12:07;7.05;;;5.00;;
11829;SDS011;5972;42.134;24.718;2023-06-10T07:14:35;7.28;;;4.82;;
11829;SDS011;5972;42.134;24.718;2023-06-10T07:17:02;11.07;;;5.00;;
11829;SDS011;5972;42.134;24.718;2023-06-10T07:19:29;8.20;;;4.68;;
11829;SDS011;5972;42.134;24.718;2023-06-10T07:21:57;12.30;;;5.10;;
11829;SDS011;5972;42.134;24.718;2023-06-10T07:24:24;10.20;;;5.05;;
11829;SDS011;5972;42.134;24.718;2023-06-10T07:26:50;6.82;;;4.90;;
11829;SDS011;5972;42.134;24.718;2023-06-10T07:29:17;8.20;;;4.88;;
11829;SDS011;5972;42.134;24.718;2023-06-10T07:31:44;8.43;;;5.13;;
11829;SDS011;5972;42.134;24.718;2023-06-10T07:34:11;11.25;;;4.88;;
11829;SDS011;5972;42.134;24.718;2023-06-10T07:36:37;8.63;;;5.00;;
11829;SDS011;5972;42.134;24.718;2023-06-10T07:39:06;8.98;;;4.78;;
11829;SDS011;5972;42.134;24.718;2023-06-10T07:41:33;13.18;;;5.40;;
11829;SDS011;5972;42.134;24.718;2023-06-10T07:44:00;9.35;;;5.20;;
11829;SDS011;5972;42.134;24.718;2023-06-10T07:46:27;7.57;;;4.90;;
11829;SDS011;5972;42.134;24.718;2023-06-10T07:48:53;7.85;;;4.82;;
11829;SDS011;5972;42.134;24.718;2023-06-10T07:51:21;8.38;;;4.43;;
11829;SDS011;5972;42.134;24.718;2023-06-10T07:53:48;11.55;;;5.00;;
11829;SDS011;5972;42.134;24.718;2023-06-10T07:56:16;11.43;;;4.65;;
11829;SDS011;5972;42.134;24.718;2023-06-10T07:58:43;9.15;;;4.70;;
11829;SDS011;5972;42.134;24.718;2023-06-10T08:01:10;9.30;;;5.00;;
11829;SDS011;5972;42.134;24.718;2023-06-10T08:03:37;13.85;;;5.07;;
11829;SDS011;5972;42.134;24.718;2023-06-10T08:06:04;5.53;;;4.70;;
11829;SDS011;5972;42.134;24.718;2023-06-10T08:08:31;8.00;;;4.15;;
11829;SDS011;5972;42.134;24.718;2023-06-10T08:10:59;8.57;;;4.30;;
11829;SDS011;5972;42.134;24.718;2023-06-10T08:13:28;9.57;;;4.65;;
11829;SDS011;5972;42.134;24.718;2023-06-10T08:15:54;4.60;;;3.53;;
11829;SDS011;5972;42.134;24.718;2023-06-10T08:18:21;6.15;;;4.00;;
11829;SDS011;5972;42.134;24.718;2023-06-10T08:20:48;5.35;;;3.90;;
11829;SDS011;5972;42.134;24.718;2023-06-10T08:23:15;7.35;;;4.15;;
11829;SDS011;5972;42.134;24.718;2023-06-10T08:25:42;4.10;;;3.70;;
11829;SDS011;5972;42.134;24.718;2023-06-10T08:28:08;5.18;;;3.17;;
11829;SDS011;5972;42.134;24.718;2023-06-10T08:30:36;6.60;;;3.47;;
11829;SDS011;5972;42.134;24.718;2023-06-10T08:33:03;7.25;;;3.55;;
11829;SDS011;5972;42.134;24.718;2023-06-10T08:35:30;4.50;;;3.33;;
11829;SDS011;5972;42.134;24.718;2023-06-10T08:37:57;9.63;;;3.38;;
11829;SDS011;5972;42.134;24.718;2023-06-10T08:40:24;5.13;;;3.63;;
11829;SDS011;5972;42.134;24.718;2023-06-10T08:42:53;4.78;;;3.40;;
11829;SDS011;5972;42.134;24.718;2023-06-10T08:45:26;5.35;;;3.75;;
11829;SDS011;5972;42.134;24.718;2023-06-10T08:47:58;3.95;;;3.60;;
11829;SDS011;5972;42.134;24.718;2023-06-10T08:50:26;4.05;;;3.65;;
11829;SDS011;5972;42.134;24.718;2023-06-10T08:52:56;3.97;;;3.42;;
11829;SDS011;5972;42.134;24.718;2023-06-10T08:55:26;6.13;;;3.40;;
11829;SDS011;5972;42.134;24.718;2023-06-10T08:57:56;4.10;;;3.30;;
11829;SDS011;5972;42.134;24.718;2023-06-10T09:00:24;4.18;;;3.28;;
11829;SDS011;5972;42.134;24.718;2023-06-10T09:02:52;3.63;;;3.15;;
11829;SDS011;5972;42.134;24.718;2023-06-10T09:05:20;3.95;;;3.38;;
11829;SDS011;5972;42.134;24.718;2023-06-10T09:07:48;5.88;;;3.25;;
11829;SDS011;5972;42.134;24.718;2023-06-10T09:10:17;4.93;;;3.63;;
11829;SDS011;5972;42.134;24.718;2023-06-10T09:12:44;4.18;;;3.40;;
11829;SDS011;5972;42.134;24.718;2023-06-10T09:15:11;6.68;;;3.55;;
11829;SDS011;5972;42.134;24.718;2023-06-10T09:17:39;5.03;;;3.40;;
11829;SDS011;5972;42.134;24.718;2023-06-10T09:20:07;3.55;;;3.20;;
11829;SDS011;5972;42.134;24.718;2023-06-10T09:22:36;7.43;;;4.03;;
11829;SDS011;5972;42.134;24.718;2023-06-10T09:25:03;9.60;;;3.55;;
11829;SDS011;5972;42.134;24.718;2023-06-10T09:27:33;11.95;;;4.30;;
11829;SDS011;5972;42.134;24.718;2023-06-10T09:30:11;5.72;;;4.00;;
11829;SDS011;5972;42.134;24.718;2023-06-10T09:32:51;8.20;;;3.72;;
11829;SDS011;5972;42.134;24.718;2023-06-10T09:35:19;4.13;;;3.60;;
11829;SDS011;5972;42.134;24.718;2023-06-10T09:37:48;5.22;;;3.88;;
11829;SDS011;5972;42.134;24.718;2023-06-10T09:40:17;5.13;;;3.65;;
11829;SDS011;5972;42.134;24.718;2023-06-10T09:42:44;4.70;;;3.85;;
11829;SDS011;5972;42.134;24.718;2023-06-10T09:45:14;6.97;;;3.90;;
11829;SDS011;5972;42.134;24.718;2023-06-10T09:47:41;5.85;;;3.53;;
11829;SDS011;5972;42.134;24.718;2023-06-10T09:50:08;5.13;;;3.72;;
11829;SDS011;5972;42.134;24.718;2023-06-10T09:52:36;9.07;;;3.65;;
11829;SDS011;5972;42.134;24.718;2023-06-10T09:55:07;4.20;;;3.63;;
11829;SDS011;5972;42.134;24.718;2023-06-10T09:57:35;6.88;;;3.50;;
11829;SDS011;5972;42.134;24.718;2023-06-10T10:00:04;5.80;;;3.70;;
11829;SDS011;5972;42.134;24.718;2023-06-10T10:02:33;5.28;;;4.00;;
11829;SDS011;5972;42.134;24.718;2023-06-10T10:05:11;4.85;;;3.50;;
11829;SDS011;5972;42.134;24.718;2023-06-10T10:07:39;4.25;;;3.60;;
11829;SDS011;5972;42.134;24.718;2023-06-10T10:10:08;8.23;;;3.60;;
11829;SDS011;5972;42.134;24.718;2023-06-10T10:12:36;6.10;;;3.63;;
11829;SDS011;5972;42.134;24.718;2023-06-10T10:15:05;4.72;;;3.47;;
11829;SDS011;5972;42.134;24.718;2023-06-10T10:17:34;5.22;;;3.63;;
11829;SDS011;5972;42.134;24.718;2023-06-10T10:20:02;4.47;;;3.35;;
11829;SDS011;5972;42.134;24.718;2023-06-10T10:22:31;4.55;;;3.45;;
11829;SDS011;5972;42.134;24.718;2023-06-10T10:25:02;4.55;;;3.60;;
11829;SDS011;5972;42.134;24.718;2023-06-10T10:27:35;4.97;;;3.83;;
11829;SDS011;5972;42.134;24.718;2023-06-10T10:30:06;9.75;;;3.85;;
11829;SDS011;5972;42.134;24.718;2023-06-10T10:32:37;4.90;;;3.67;;
11829;SDS011;5972;42.134;24.718;2023-06-10T10:35:09;4.30;;;3.90;;
11829;SDS011;5972;42.134;24.718;2023-06-10T10:37:43;5.32;;;3.45;;
11829;SDS011;5972;42.134;24.718;2023-06-10T10:40:10;4.38;;;3.80;;
11829;SDS011;5972;42.134;24.718;2023-06-10T10:42:39;4.95;;;3.67;;
11829;SDS011;5972;42.134;24.718;2023-06-10T10:45:07;4.30;;;3.90;;
11829;SDS011;5972;42.134;24.718;2023-06-10T10:47:36;5.65;;;3.80;;
11829;SDS011;5972;42.134;24.718;2023-06-10T10:50:12;5.25;;;3.45;;
11829;SDS011;5972;42.134;24.718;2023-06-10T10:52:52;5.35;;;3.67;;
11829;SDS011;5972;42.134;24.718;2023-06-10T10:55:21;6.57;;;3.72;;
11829;SDS011;5972;42.134;24.718;2023-06-10T10:57:55;14.13;;;4.20;;
11829;SDS011;5972;42.134;24.718;2023-06-10T11:00:27;9.82;;;3.88;;
11829;SDS011;5972;42.134;24.718;2023-06-10T11:02:57;5.40;;;4.13;;
11829;SDS011;5972;42.134;24.718;2023-06-10T11:05:35;5.70;;;3.42;;
11829;SDS011;5972;42.134;24.718;2023-06-10T11:08:04;5.28;;;3.63;;
11829;SDS011;5972;42.134;24.718;2023-06-10T11:10:32;7.72;;;3.83;;
11829;SDS011;5972;42.134;24.718;2023-06-10T11:13:01;4.32;;;3.78;;
11829;SDS011;5972;42.134;24.718;2023-06-10T11:15:32;4.97;;;3.45;;
11829;SDS011;5972;42.134;24.718;2023-06-10T11:18:09;8.13;;;3.70;;
11829;SDS011;5972;42.134;24.718;2023-06-10T11:23:30;5.57;;;3.45;;
11829;SDS011;5972;42.134;24.718;2023-06-10T11:29:09;4.80;;;3.53;;
11829;SDS011;5972;42.134;24.718;2023-06-10T11:31:40;4.95;;;3.13;;
11829;SDS011;5972;42.134;24.718;2023-06-10T11:34:08;4.88;;;3.30;;
11829;SDS011;5972;42.134;24.718;2023-06-10T11:36:36;5.78;;;3.10;;
11829;SDS011;5972;42.134;24.718;2023-06-10T11:39:07;10.52;;;3.58;;
11829;SDS011;5972;42.134;24.718;2023-06-10T11:41:35;5.07;;;3.30;;
11829;SDS011;5972;42.134;24.718;2023-06-10T11:44:07;3.80;;;3.40;;
11829;SDS011;5972;42.134;24.718;2023-06-10T11:46:36;5.00;;;3.10;;
11829;SDS011;5972;42.134;24.718;2023-06-10T11:49:04;6.72;;;3.40;;
11829;SDS011;5972;42.134;24.718;2023-06-10T11:51:32;5.57;;;3.70;;
11829;SDS011;5972;42.134;24.718;2023-06-10T11:54:00;7.85;;;3.55;;
11829;SDS011;5972;42.134;24.718;2023-06-10T11:56:28;4.00;;;3.25;;
11829;SDS011;5972;42.134;24.718;2023-06-10T11:58:57;4.15;;;3.40;;
11829;SDS011;5972;42.134;24.718;2023-06-10T12:01:29;4.88;;;3.47;;
11829;SDS011;5972;42.134;24.718;2023-06-10T12:03:58;7.05;;;3.58;;
11829;SDS011;5972;42.134;24.718;2023-06-10T12:06:26;5.90;;;3.42;;
11829;SDS011;5972;42.134;24.718;2023-06-10T12:08:53;5.78;;;3.55;;
11829;SDS011;5972;42.134;24.718;2023-06-10T12:11:21;6.00;;;3.10;;
11829;SDS011;5972;42.134;24.718;2023-06-10T12:13:49;5.93;;;3.80;;
11829;SDS011;5972;42.134;24.718;2023-06-10T12:16:16;7.68;;;3.50;;
11829;SDS011;5972;42.134;24.718;2023-06-10T12:18:45;4.00;;;3.60;;
11829;SDS011;5972;42.134;24.718;2023-06-10T12:21:18;4.45;;;3.28;;
11829;SDS011;5972;42.134;24.718;2023-06-10T12:23:59;4.03;;;3.13;;
11829;SDS011;5972;42.134;24.718;2023-06-10T12:26:33;9.88;;;3.78;;
11829;SDS011;5972;42.134;24.718;2023-06-10T12:29:02;5.70;;;3.90;;
11829;SDS011;5972;42.134;24.718;2023-06-10T12:31:51;6.28;;;3.67;;
11829;SDS011;5972;42.134;24.718;2023-06-10T12:34:32;6.63;;;4.15;;
11829;SDS011;5972;42.134;24.718;2023-06-10T12:37:05;13.27;;;4.45;;
11829;SDS011;5972;42.134;24.718;2023-06-10T12:39:38;5.78;;;4.10;;
11829;SDS011;5972;42.134;24.718;2023-06-10T12:42:05;5.20;;;4.22;;
11829;SDS011;5972;42.134;24.718;2023-06-10T12:44:35;8.40;;;3.78;;
11829;SDS011;5972;42.134;24.718;2023-06-10T12:47:08;3.75;;;3.45;;
11829;SDS011;5972;42.134;24.718;2023-06-10T12:49:37;8.07;;;3.60;;
11829;SDS011;5972;42.134;24.718;2023-06-10T12:52:05;4.80;;;3.65;;
11829;SDS011;5972;42.134;24.718;2023-06-10T12:54:33;4.38;;;3.72;;
11829;SDS011;5972;42.134;24.718;2023-06-10T12:57:01;5.50;;;3.88;;
11829;SDS011;5972;42.134;24.718;2023-06-10T12:59:28;5.10;;;4.00;;
11829;SDS011;5972;42.134;24.718;2023-06-10T13:01:56;5.32;;;3.65;;
11829;SDS011;5972;42.134;24.718;2023-06-10T13:04:23;3.95;;;3.53;;
11829;SDS011;5972;42.134;24.718;2023-06-10T13:06:50;5.93;;;4.30;;
11829;SDS011;5972;42.134;24.718;2023-06-10T13:09:18;4.78;;;4.10;;
11829;SDS011;5972;42.134;24.718;2023-06-10T13:11:45;6.65;;;3.72;;
11829;SDS011;5972;42.134;24.718;2023-06-10T13:14:12;5.78;;;4.00;;
11829;SDS011;5972;42.134;24.718;2023-06-10T13:16:39;5.22;;;4.10;;
11829;SDS011;5972;42.134;24.718;2023-06-10T13:19:05;13.15;;;3.80;;
11829;SDS011;5972;42.134;24.718;2023-06-10T13:21:33;5.47;;;4.32;;
11829;SDS011;5972;42.134;24.718;2023-06-10T13:24:00;11.15;;;4.20;;
11829;SDS011;5972;42.134;24.718;2023-06-10T13:26:28;8.63;;;4.15;;
11829;SDS011;5972;42.134;24.718;2023-06-10T13:28:55;9.98;;;4.07;;
11829;SDS011;5972;42.134;24.718;2023-06-10T13:31:22;7.88;;;3.90;;
11829;SDS011;5972;42.134;24.718;2023-06-10T13:33:49;9.13;;;4.07;;
11829;SDS011;5972;42.134;24.718;2023-06-10T13:36:16;7.60;;;4.10;;
11829;SDS011;5972;42.134;24.718;2023-06-10T13:38:43;4.22;;;3.45;;
11829;SDS011;5972;42.134;24.718;2023-06-10T13:41:10;5.40;;;3.80;;
11829;SDS011;5972;42.134;24.718;2023-06-10T13:43:39;5.30;;;3.60;;
11829;SDS011;5972;42.134;24.718;2023-06-10T13:46:05;3.78;;;3.45;;
11829;SDS011;5972;42.134;24.718;2023-06-10T13:48:32;5.07;;;3.55;;
11829;SDS011;5972;42.134;24.718;2023-06-10T13:51:00;4.68;;;3.72;;
11829;SDS011;5972;42.134;24.718;2023-06-10T13:53:27;11.80;;;3.92;;
11829;SDS011;5972;42.134;24.718;2023-06-10T13:55:53;3.85;;;3.55;;
11829;SDS011;5972;42.134;24.718;2023-06-10T13:58:20;3.95;;;3.33;;
11829;SDS011;5972;42.134;24.718;2023-06-10T14:00:48;4.97;;;3.53;;
11829;SDS011;5972;42.134;24.718;2023-06-10T14:03:15;5.88;;;3.70;;
11829;SDS011;5972;42.134;24.718;2023-06-10T14:05:42;4.65;;;3.30;;
11829;SDS011;5972;42.134;24.718;2023-06-10T14:08:09;6.47;;;3.67;;
11829;SDS011;5972;42.134;24.718;2023-06-10T14:10:35;4.65;;;3.60;;
11829;SDS011;5972;42.134;24.718;2023-06-10T14:13:02;3.63;;;3.30;;
11829;SDS011;5972;42.134;24.718;2023-06-10T14:15:30;6.85;;;3.15;;
11829;SDS011;5972;42.134;24.718;2023-06-10T14:17:59;4.75;;;3.58;;
11829;SDS011;5972;42.134;24.718;2023-06-10T14:20:25;4.13;;;3.63;;
11829;SDS011;5972;42.134;24.718;2023-06-10T14:22:56;3.92;;;3.50;;
11829;SDS011;5972;42.134;24.718;2023-06-10T14:25:23;6.90;;;3.63;;
11829;SDS011;5972;42.134;24.718;2023-06-10T14:27:50;5.38;;;3.70;;
11829;SDS011;5972;42.134;24.718;2023-06-10T14:30:16;4.28;;;3.45;;
11829;SDS011;5972;42.134;24.718;2023-06-10T14:32:43;5.72;;;3.55;;
11829;SDS011;5972;42.134;24.718;2023-06-10T14:35:11;6.38;;;3.20;;
11829;SDS011;5972;42.134;24.718;2023-06-10T14:37:38;6.03;;;3.70;;
11829;SDS011;5972;42.134;24.718;2023-06-10T14:40:05;7.57;;;3.60;;
11829;SDS011;5972;42.134;24.718;2023-06-10T14:42:33;4.75;;;3.20;;
11829;SDS011;5972;42.134;24.718;2023-06-10T14:44:59;3.65;;;3.35;;
11829;SDS011;5972;42.134;24.718;2023-06-10T14:47:26;4.50;;;3.58;;
11829;SDS011;5972;42.134;24.718;2023-06-10T14:49:53;5.35;;;3.80;;
11829;SDS011;5972;42.134;24.718;2023-06-10T14:52:21;5.03;;;3.20;;
11829;SDS011;5972;42.134;24.718;2023-06-10T14:54:48;3.90;;;3.50;;
11829;SDS011;5972;42.134;24.718;2023-06-10T14:57:15;4.90;;;3.22;;